Startpagina
METAR-TAF:

METAR-TAF

Vliegvelden :

Talara, Peru

breedte: 04-34S, lengte: 081-15W, hoogte: 85 m

Actueel weer

Dit bericht is 48 minuten geleden gemaakt, om 19:00 UTC
Wind 11 kt uit het zuidzuidwesten
Temperatuur 25°C
Vochtigheid 57%
Druk 1012 hPa
Zicht 10 km of meer
geen wolken onder 1500 m en geen cumulonimbus

METAR: SPYL 191900Z 20011KT CAVOK 25/16 Q1012 RMK BIRD HAZARD RWY 17/35 PP000

Tijdstip: 14:48 (19:48 UTC)

Verwachting

Dit bericht is 2 uur en het 33 minuten geleden gemaakt, om 17:15 UTC
Verwachting geldig van 19 om 18 UTC tot 20 om 18 UTC
Wind 11 kt uit het zuiden
Zicht 10 km of meer
geen wolken onder 1500 m en geen cumulonimbus

TAF: SPYL 191715Z 1918/2018 18011KT CAVOK TX25/1919Z TN15/2011Z

Waarnemingen en weersverwachtingen van meer dan 4000 vliegvelden (METAR en TAF).

De beschikbare stations zijn de gele en rode punten op de kaart.

Ga met uw muis naar het station om de naam te zien.

Klik dan om waarnemingen en weersverwachtingen te zien.

kaart wijzigen: klik op de groene knoppen met een zwart kruis om in te zoomen, op de groene knop met een streepje om uit te zoomen of op de groene pijlen voor aangrenzende kaarten.


METAR-TAF: